Time;durP1;ratioP1;P1;durP2;ratioP2;P2;SDS_P1;SDS_P2;PMS_P1;PMS_P2;Temp;Humidity;BMP_temperature;BMP_pressure;BME280_temperature;BME280_humidity;BME280_pressure;Samples;Min_cycle;Max_cycle;Signal;HPM_P1;HPM_P2
2024/02/01 00:01:21;;;;;;;;;22.00;20.33;;;;;;;;5079924;27;45444;-80
2024/02/01 00:03:46;;;;;;;;;21.33;19.00;;;;;;;;5079183;27;45298;-80
2024/02/01 00:06:11;;;;;;;;;21.33;19.33;;;;;;;;5079697;27;45266;-81
2024/02/01 00:08:36;;;;;;;;;18.33;18.33;;;;;;;;5079654;27;45589;-80
2024/02/01 00:11:02;;;;;;;;;20.33;20.00;;;;;;;;5078012;28;46654;-81
2024/02/01 00:13:27;;;;;;;;;18.67;18.67;;;;;;;;5079282;27;45291;-81
2024/02/01 00:15:53;;;;;;;;;23.33;20.00;;;;;;;;5079615;27;45560;-81
2024/02/01 00:18:18;;;;;;;;;19.67;18.67;;;;;;;;5078215;28;45409;-81
2024/02/01 00:20:44;;;;;;;;;18.33;16.00;;;;;;;;5077863;28;47036;-81
2024/02/01 00:23:09;;;;;;;;;22.00;19.33;;;;;;;;5079043;28;45303;-81
2024/02/01 00:25:34;;;;;;;;;19.67;18.67;;;;;;;;5079439;27;45361;-81
2024/02/01 00:28:00;;;;;;;;;19.67;19.00;;;;;;;;5079510;27;45550;-81
2024/02/01 00:30:25;;;;;;;;;22.67;20.33;;;;;;;;5079234;27;45507;-81
2024/02/01 00:32:50;;;;;;;;;18.67;18.67;;;;;;;;5079391;27;45486;-81
2024/02/01 00:35:15;;;;;;;;;19.00;16.00;;;;;;;;5079380;27;45323;-80
2024/02/01 00:37:40;;;;;;;;;21.33;20.00;;;;;;;;5078203;28;45415;-81
2024/02/01 00:40:06;;;;;;;;;17.00;17.00;;;;;;;;5079301;28;45475;-81
2024/02/01 00:42:31;;;;;;;;;22.00;19.00;;;;;;;;5079037;27;46682;-81
2024/02/01 00:44:56;;;;;;;;;23.33;18.67;;;;;;;;5078886;27;45480;-81
2024/02/01 00:47:21;;;;;;;;;23.33;19.00;;;;;;;;5077847;28;45309;-80
2024/02/01 00:49:47;;;;;;;;;20.33;19.67;;;;;;;;5078985;27;45351;-81
2024/02/01 00:52:12;;;;;;;;;17.00;13.67;;;;;;;;5063999;27;46111;-81
2024/02/01 00:54:37;;;;;;;;;18.00;16.33;;;;;;;;5058686;28;45276;-81
2024/02/01 00:57:03;;;;;;;;;18.33;17.00;;;;;;;;5062328;28;45457;-81
2024/02/01 00:59:28;;;;;;;;;16.67;14.33;;;;;;;;5076632;28;47465;-81
2024/02/01 01:01:54;;;;;;;;;23.67;21.00;;;;;;;;5067565;27;45479;-81
2024/02/01 01:04:19;;;;;;;;;20.33;18.00;;;;;;;;5057285;28;45230;-81
2024/02/01 01:06:44;;;;;;;;;18.00;18.00;;;;;;;;5057498;28;45495;-81
2024/02/01 01:09:09;;;;;;;;;19.33;17.67;;;;;;;;5057071;28;46080;-81
2024/02/01 01:11:34;;;;;;;;;22.00;19.67;;;;;;;;5058491;28;45238;-81
2024/02/01 01:14:00;;;;;;;;;21.33;19.33;;;;;;;;5056793;28;45335;-81
2024/02/01 01:49:38;;;;;;;;;18.00;16.67;;;;;;;;5040947;28;45290;-80
2024/02/01 01:52:03;;;;;;;;;19.00;16.33;;;;;;;;5039615;28;45315;-82
2024/02/01 01:54:31;;;;;;;;;18.00;18.00;;;;;;;;5041010;28;45269;-81
2024/02/01 01:56:57;;;;;;;;;18.33;18.33;;;;;;;;5048303;28;48622;-80
2024/02/01 01:59:22;;;;;;;;;20.00;19.33;;;;;;;;5081327;28;45561;-80
2024/02/01 02:01:49;;;;;;;;;21.00;20.00;;;;;;;;5081565;27;45420;-81
2024/02/01 02:04:17;;;;;;;;;15.00;14.00;;;;;;;;5079737;28;46856;-81
2024/02/01 02:06:43;;;;;;;;;22.00;19.00;;;;;;;;5081267;27;45327;-81
2024/02/01 02:09:12;;;;;;;;;17.67;17.00;;;;;;;;5081389;28;45330;-81
2024/02/01 02:11:37;;;;;;;;;21.00;19.00;;;;;;;;5081430;27;45326;-80
2024/02/01 02:14:08;;;;;;;;;27.67;26.33;;;;;;;;5081024;27;45423;-81
2024/02/01 02:16:36;;;;;;;;;26.67;23.00;;;;;;;;5081314;27;46482;-82
2024/02/01 02:19:09;;;;;;;;;24.33;22.00;;;;;;;;5081209;27;45438;-81
2024/02/01 02:21:34;;;;;;;;;20.33;16.33;;;;;;;;5080898;27;45262;-81
2024/02/01 02:24:00;;;;;;;;;18.00;17.33;;;;;;;;5079219;28;47488;-80
2024/02/01 02:26:25;;;;;;;;;15.67;15.67;;;;;;;;5079563;28;46929;-82
2024/02/01 02:28:50;;;;;;;;;16.00;16.00;;;;;;;;5079320;28;45357;-81
2024/02/01 02:31:15;;;;;;;;;24.00;22.00;;;;;;;;5080065;28;45327;-81
2024/02/01 02:33:41;;;;;;;;;22.67;21.33;;;;;;;;5081150;27;45298;-81
2024/02/01 02:36:09;;;;;;;;;20.00;20.00;;;;;;;;5080754;27;46171;-81
2024/02/01 02:38:34;;;;;;;;;23.33;20.33;;;;;;;;5080912;28;45255;-81
2024/02/01 02:40:59;;;;;;;;;23.00;20.00;;;;;;;;5079459;28;45485;-81
2024/02/01 02:43:25;;;;;;;;;19.33;17.33;;;;;;;;5079342;28;46135;-81
2024/02/01 02:45:50;;;;;;;;;18.00;17.33;;;;;;;;5079429;28;47119;-80
2024/02/01 02:48:15;;;;;;;;;21.67;20.00;;;;;;;;5080801;27;45264;-81
2024/02/01 02:50:41;;;;;;;;;23.00;22.33;;;;;;;;5080614;27;45490;-81
2024/02/01 02:53:06;;;;;;;;;18.67;17.00;;;;;;;;5079291;28;47191;-80
2024/02/01 02:55:31;;;;;;;;;21.67;20.33;;;;;;;;5080745;27;45349;-81
2024/02/01 02:57:56;;;;;;;;;17.67;16.67;;;;;;;;5062782;28;45658;-81
2024/02/01 03:00:22;;;;;;;;;20.00;20.00;;;;;;;;5040193;28;45219;-81
2024/02/01 03:02:50;;;;;;;;;19.00;19.00;;;;;;;;5038771;28;46867;-81
2024/02/01 03:05:16;;;;;;;;;19.00;18.67;;;;;;;;5043518;28;48379;-82
2024/02/01 03:07:42;;;;;;;;;18.33;18.33;;;;;;;;5060274;28;45476;-81
2024/02/01 03:10:07;;;;;;;;;22.00;20.00;;;;;;;;5060321;28;45394;-81
2024/02/01 03:12:33;;;;;;;;;17.00;16.00;;;;;;;;5057082;28;46385;-81
2024/02/01 03:14:58;;;;;;;;;20.33;18.33;;;;;;;;5058125;28;46891;-81
2024/02/01 03:17:23;;;;;;;;;19.67;19.00;;;;;;;;5059992;28;45424;-81
2024/02/01 03:19:50;;;;;;;;;19.00;19.00;;;;;;;;5058507;28;45360;-82
2024/02/01 03:22:19;;;;;;;;;25.67;22.00;;;;;;;;5059863;28;45562;-81
2024/02/01 03:24:45;;;;;;;;;20.00;20.00;;;;;;;;5057864;28;47555;-81
2024/02/01 03:27:11;;;;;;;;;18.00;17.00;;;;;;;;5058371;28;45267;-81
2024/02/01 03:29:37;;;;;;;;;4.00;3.00;;;;;;;;5058457;28;45484;-80
2024/02/01 03:32:05;;;;;;;;;14.33;12.33;;;;;;;;5058474;28;47357;-82
2024/02/01 03:34:30;;;;;;;;;21.67;20.00;;;;;;;;5059653;28;45439;-80
2024/02/01 03:36:55;;;;;;;;;18.33;17.67;;;;;;;;5058346;28;45323;-82
2024/02/01 03:39:23;;;;;;;;;18.67;17.67;;;;;;;;5059335;28;45572;-80
2024/02/01 03:41:52;;;;;;;;;17.00;17.00;;;;;;;;5059743;28;45250;-81
2024/02/01 03:44:21;;;;;;;;;16.33;15.00;;;;;;;;5058787;28;46317;-81
2024/02/01 03:46:46;;;;;;;;;15.00;15.00;;;;;;;;5057277;28;45808;-81
2024/02/01 03:49:11;;;;;;;;;21.00;19.00;;;;;;;;5057660;28;45386;-81
2024/02/01 03:51:37;;;;;;;;;15.67;15.67;;;;;;;;5058984;28;45437;-81
2024/02/01 03:54:05;;;;;;;;;21.33;20.67;;;;;;;;5059394;28;45399;-81
2024/02/01 03:56:31;;;;;;;;;17.33;16.67;;;;;;;;5058199;28;45252;-81
2024/02/01 03:59:00;;;;;;;;;20.33;18.67;;;;;;;;5059250;28;45560;-82
2024/02/01 04:01:26;;;;;;;;;17.33;17.00;;;;;;;;5059626;28;45297;-81
2024/02/01 04:03:51;;;;;;;;;23.00;22.00;;;;;;;;5058849;28;46319;-81
2024/02/01 04:06:17;;;;;;;;;18.00;17.33;;;;;;;;5059234;28;45304;-81
2024/02/01 04:08:42;;;;;;;;;20.00;19.00;;;;;;;;5058195;28;45253;-82
2024/02/01 04:11:07;;;;;;;;;21.33;18.00;;;;;;;;5057571;28;46268;-81
2024/02/01 04:13:33;;;;;;;;;21.33;18.67;;;;;;;;5059057;28;46535;-81
2024/02/01 04:15:58;;;;;;;;;17.33;17.33;;;;;;;;5057966;28;45246;-81
2024/02/01 04:18:23;;;;;;;;;18.00;18.00;;;;;;;;5059239;28;45290;-81
2024/02/01 04:20:48;;;;;;;;;19.00;18.33;;;;;;;;5057845;28;46904;-81
2024/02/01 04:23:13;;;;;;;;;15.00;13.00;;;;;;;;5058733;28;45386;-81
2024/02/01 04:25:39;;;;;;;;;17.33;16.33;;;;;;;;5057870;28;45359;-81
2024/02/01 04:28:08;;;;;;;;;17.00;15.33;;;;;;;;5059058;28;45240;-81
2024/02/01 04:30:33;;;;;;;;;19.00;19.00;;;;;;;;5057637;28;45727;-82
2024/02/01 04:32:58;;;;;;;;;22.33;20.00;;;;;;;;5058943;28;45286;-82
2024/02/01 04:35:24;;;;;;;;;21.00;18.00;;;;;;;;5058931;28;45380;-80
2024/02/01 04:37:52;;;;;;;;;16.67;14.67;;;;;;;;5059185;28;45342;-82
2024/02/01 04:40:18;;;;;;;;;20.33;17.00;;;;;;;;5059020;28;45294;-81
2024/02/01 04:42:47;;;;;;;;;19.33;18.67;;;;;;;;5058696;28;46015;-81
2024/02/01 04:45:12;;;;;;;;;18.67;18.33;;;;;;;;5058816;28;45374;-81
2024/02/01 04:47:38;;;;;;;;;22.67;20.00;;;;;;;;5058513;28;45504;-81
2024/02/01 04:50:03;;;;;;;;;20.67;20.00;;;;;;;;5058042;28;45605;-83
2024/02/01 04:52:29;;;;;;;;;20.00;18.00;;;;;;;;5060503;28;47965;-82
2024/02/01 04:54:54;;;;;;;;;18.00;18.00;;;;;;;;5062755;28;45398;-82
2024/02/01 04:57:20;;;;;;;;;19.67;19.00;;;;;;;;5069206;28;45696;-81
2024/02/01 04:59:46;;;;;;;;;22.67;20.67;;;;;;;;5082998;27;45419;-80
2024/02/01 05:02:12;;;;;;;;;18.00;18.00;;;;;;;;5082342;27;45388;-82
2024/02/01 05:04:37;;;;;;;;;23.33;21.00;;;;;;;;5082350;27;45317;-81
2024/02/01 05:07:05;;;;;;;;;18.67;18.67;;;;;;;;5082734;27;45271;-81
2024/02/01 05:09:32;;;;;;;;;22.00;20.33;;;;;;;;5082569;27;45833;-80
2024/02/01 05:11:57;;;;;;;;;24.00;20.67;;;;;;;;5082143;27;46125;-80
2024/02/01 05:14:23;;;;;;;;;23.00;20.67;;;;;;;;5082021;27;45260;-80
2024/02/01 05:16:50;;;;;;;;;20.67;20.67;;;;;;;;5082564;27;45306;-80
2024/02/01 05:19:15;;;;;;;;;22.67;22.00;;;;;;;;5082334;27;45401;-80
2024/02/01 05:21:40;;;;;;;;;21.00;18.67;;;;;;;;5081856;27;45367;-80
2024/02/01 05:24:08;;;;;;;;;27.00;21.33;;;;;;;;5081923;27;45426;-80
2024/02/01 05:26:36;;;;;;;;;20.33;16.67;;;;;;;;5080928;28;45382;-79
2024/02/01 05:29:02;;;;;;;;;16.67;16.67;;;;;;;;5081670;27;45369;-80
2024/02/01 05:31:27;;;;;;;;;22.00;21.33;;;;;;;;5081813;28;45296;-79
2024/02/01 05:33:52;;;;;;;;;23.33;22.00;;;;;;;;5082013;27;45283;-79
2024/02/01 05:36:17;;;;;;;;;22.67;19.33;;;;;;;;5082111;27;45338;-79
2024/02/01 05:38:43;;;;;;;;;27.00;23.00;;;;;;;;5068675;27;45324;-79
2024/02/01 05:41:11;;;;;;;;;22.33;21.33;;;;;;;;5061474;28;46469;-78
2024/02/01 05:43:40;;;;;;;;;28.33;26.33;;;;;;;;5060767;28;45362;-79
2024/02/01 05:46:14;;;;;;;;;25.67;25.00;;;;;;;;5061271;28;45209;-79
2024/02/01 05:48:43;;;;;;;;;25.67;23.33;;;;;;;;5061199;28;45350;-79
2024/02/01 05:51:08;;;;;;;;;27.00;26.00;;;;;;;;5061039;28;46288;-79
2024/02/01 05:53:33;;;;;;;;;26.00;24.67;;;;;;;;5060628;28;45264;-79
2024/02/01 05:55:59;;;;;;;;;24.00;22.67;;;;;;;;5061495;28;45264;-79
2024/02/01 05:58:27;;;;;;;;;23.00;23.00;;;;;;;;5076272;28;46974;-79
2024/02/01 06:00:53;;;;;;;;;30.67;23.33;;;;;;;;5079321;28;47147;-79
2024/02/01 06:03:18;;;;;;;;;20.00;19.67;;;;;;;;5080378;27;45299;-79
2024/02/01 06:05:48;;;;;;;;;19.33;18.67;;;;;;;;5080044;28;45358;-79
2024/02/01 06:08:13;;;;;;;;;27.00;26.00;;;;;;;;5080159;28;46259;-79
2024/02/01 06:10:38;;;;;;;;;20.67;20.00;;;;;;;;5081176;27;46791;-79
2024/02/01 06:13:04;;;;;;;;;24.00;21.33;;;;;;;;5081128;27;45424;-79
2024/02/01 06:15:29;;;;;;;;;26.67;25.33;;;;;;;;5079941;28;45414;-79
2024/02/01 06:17:54;;;;;;;;;27.67;24.33;;;;;;;;5081238;28;45536;-79
2024/02/01 06:20:19;;;;;;;;;27.00;24.00;;;;;;;;5081227;27;45396;-77
2024/02/01 06:22:45;;;;;;;;;26.00;24.00;;;;;;;;5079306;28;45955;-78
2024/02/01 06:25:11;;;;;;;;;24.67;22.67;;;;;;;;5081840;28;45235;-77
2024/02/01 06:27:37;;;;;;;;;21.67;21.67;;;;;;;;5080805;28;46279;-78
2024/02/01 06:30:04;;;;;;;;;25.00;23.00;;;;;;;;5081210;28;45229;-78
2024/02/01 06:32:29;;;;;;;;;25.33;24.33;;;;;;;;5081081;27;45339;-77
2024/02/01 06:34:58;;;;;;;;;25.67;23.00;;;;;;;;5081164;27;45400;-77
2024/02/01 06:37:28;;;;;;;;;22.67;21.33;;;;;;;;5080548;28;46778;-78
2024/02/01 06:43:09;;;;;;;;;25.33;24.00;;;;;;;;5089060;28;45267;-79
2024/02/01 06:45:44;;;;;;;;;25.67;25.00;;;;;;;;5088495;27;45306;-78
2024/02/01 06:48:11;;;;;;;;;25.00;23.33;;;;;;;;5087798;27;45326;-78
2024/02/01 06:50:54;;;;;;;;;27.00;25.00;;;;;;;;5081650;28;45488;-77
2024/02/01 06:53:23;;;;;;;;;27.67;27.67;;;;;;;;5061390;28;45492;-79
2024/02/01 06:55:57;;;;;;;;;27.67;27.67;;;;;;;;5060920;28;45429;-79
2024/02/01 06:58:47;;;;;;;;;28.67;25.33;;;;;;;;5065737;28;45406;-81
2024/02/01 07:01:48;;;;;;;;;28.33;26.67;;;;;;;;5058611;28;47441;-79
2024/02/01 07:04:13;;;;;;;;;31.00;27.33;;;;;;;;5059673;28;45209;-80
2024/02/01 07:06:53;;;;;;;;;26.67;23.67;;;;;;;;5060315;28;45516;-80
2024/02/01 07:09:27;;;;;;;;;29.67;28.67;;;;;;;;5059601;28;45258;-80
2024/02/01 07:12:09;;;;;;;;;26.33;24.67;;;;;;;;5060800;28;47142;-81
2024/02/01 07:14:39;;;;;;;;;33.67;31.67;;;;;;;;5057504;28;45372;-83
2024/02/01 07:17:27;;;;;;;;;30.33;27.33;;;;;;;;5058576;28;45308;-81
2024/02/01 07:19:53;;;;;;;;;32.00;30.00;;;;;;;;5059619;28;45477;-83
2024/02/01 07:22:32;;;;;;;;;29.00;27.67;;;;;;;;5059558;28;45394;-81
2024/02/01 08:00:17;;;;;;;;;34.67;31.67;;;;;;;;5058616;28;45453;-81
2024/02/01 08:02:49;;;;;;;;;32.00;31.00;;;;;;;;5055206;28;47072;-80
2024/02/01 08:08:03;;;;;;;;;40.00;35.67;;;;;;;;5059068;28;45350;-81
2024/02/01 08:10:28;;;;;;;;;47.33;39.00;;;;;;;;5060975;28;45464;-82
2024/02/01 08:13:04;;;;;;;;;43.67;34.67;;;;;;;;5058235;28;46770;-77
2024/02/01 08:15:30;;;;;;;;;33.00;31.67;;;;;;;;5059465;28;45821;-76
2024/02/01 08:17:55;;;;;;;;;38.67;33.00;;;;;;;;5058966;28;45281;-76
2024/02/01 08:20:21;;;;;;;;;36.00;33.00;;;;;;;;5059298;28;45331;-76
2024/02/01 08:22:46;;;;;;;;;38.67;34.00;;;;;;;;5058704;28;45439;-76
2024/02/01 08:25:12;;;;;;;;;40.33;32.33;;;;;;;;5061921;28;46389;-76
2024/02/01 08:27:37;;;;;;;;;35.33;32.00;;;;;;;;5062763;28;45323;-76
2024/02/01 08:30:12;;;;;;;;;34.33;30.67;;;;;;;;5049412;28;45257;-76
2024/02/01 08:32:41;;;;;;;;;33.33;30.67;;;;;;;;5061533;28;45231;-78
2024/02/01 08:35:10;;;;;;;;;31.67;29.00;;;;;;;;5060384;28;48070;-77
2024/02/01 08:37:35;;;;;;;;;39.67;34.67;;;;;;;;5062128;28;45499;-76
2024/02/01 08:40:02;;;;;;;;;44.00;34.33;;;;;;;;5062770;28;45357;-77
2024/02/01 08:42:29;;;;;;;;;38.33;34.00;;;;;;;;5062531;28;45326;-76
2024/02/01 08:44:54;;;;;;;;;39.33;33.00;;;;;;;;5062468;28;45215;-77
2024/02/01 08:47:23;;;;;;;;;33.00;31.00;;;;;;;;5063150;28;45259;-77
2024/02/01 08:49:48;;;;;;;;;34.00;31.00;;;;;;;;5062732;28;45391;-78
2024/02/01 08:52:15;;;;;;;;;33.67;30.00;;;;;;;;5060757;28;46076;-78
2024/02/01 08:54:40;;;;;;;;;37.33;32.33;;;;;;;;5065238;28;46090;-77
2024/02/01 08:57:13;;;;;;;;;28.67;27.67;;;;;;;;5070275;28;45401;-77
2024/02/01 08:59:38;;;;;;;;;34.00;30.67;;;;;;;;5085386;27;45614;-77
2024/02/01 09:02:13;;;;;;;;;25.67;25.67;;;;;;;;5082639;27;45609;-77
2024/02/01 09:04:38;;;;;;;;;28.00;28.00;;;;;;;;5078474;28;45469;-78
2024/02/01 09:07:03;;;;;;;;;32.67;28.67;;;;;;;;5068598;28;45261;-77
2024/02/01 09:09:28;;;;;;;;;30.00;27.00;;;;;;;;5056618;28;45535;-77
2024/02/01 09:11:54;;;;;;;;;30.33;28.33;;;;;;;;5058812;28;47536;-77
2024/02/01 09:14:19;;;;;;;;;30.67;29.67;;;;;;;;5061661;28;45470;-77
2024/02/01 09:16:44;;;;;;;;;28.33;28.33;;;;;;;;5066852;28;45377;-79
2024/02/01 09:19:14;;;;;;;;;31.00;28.33;;;;;;;;5067578;28;45301;-80
2024/02/01 09:21:39;;;;;;;;;30.00;27.33;;;;;;;;5070165;28;45299;-79
2024/02/01 09:24:05;;;;;;;;;30.67;27.67;;;;;;;;5063571;28;45503;-77
2024/02/01 09:26:30;;;;;;;;;28.00;28.00;;;;;;;;5061625;28;45280;-77
2024/02/01 09:28:55;;;;;;;;;29.33;27.00;;;;;;;;5059489;28;45466;-78
2024/02/01 09:31:21;;;;;;;;;26.33;22.33;;;;;;;;5062618;28;45344;-77
2024/02/01 09:33:48;;;;;;;;;24.67;24.33;;;;;;;;5061821;28;45548;-77
2024/02/01 09:36:14;;;;;;;;;26.33;25.33;;;;;;;;5061547;28;45437;-77
2024/02/01 09:38:39;;;;;;;;;34.00;31.67;;;;;;;;5059762;28;45240;-80
2024/02/01 09:41:05;;;;;;;;;32.67;25.67;;;;;;;;5060601;28;47047;-78
2024/02/01 09:43:32;;;;;;;;;25.33;24.33;;;;;;;;5061816;28;45407;-77
2024/02/01 09:46:02;;;;;;;;;31.00;29.00;;;;;;;;5061331;28;45347;-78
2024/02/01 09:48:27;;;;;;;;;25.00;23.67;;;;;;;;5061246;28;45390;-77
2024/02/01 09:50:53;;;;;;;;;26.00;25.67;;;;;;;;5060790;28;45335;-78
2024/02/01 09:53:22;;;;;;;;;25.33;25.00;;;;;;;;5060157;28;47080;-78
2024/02/01 09:55:49;;;;;;;;;28.33;25.33;;;;;;;;5059755;28;45341;-80
2024/02/01 09:58:15;;;;;;;;;28.67;27.00;;;;;;;;5077770;28;45733;-79
2024/02/01 10:00:40;;;;;;;;;25.67;25.67;;;;;;;;5073834;28;45846;-80
2024/02/01 10:03:05;;;;;;;;;27.33;25.33;;;;;;;;5062625;28;45314;-77
2024/02/01 10:05:32;;;;;;;;;29.67;27.33;;;;;;;;5061020;28;45297;-80
2024/02/01 10:07:59;;;;;;;;;26.33;25.00;;;;;;;;5061789;28;45334;-79
2024/02/01 10:10:24;;;;;;;;;30.33;28.00;;;;;;;;5050326;28;45627;-77
2024/02/01 10:12:52;;;;;;;;;28.00;28.00;;;;;;;;5059148;28;45525;-78
2024/02/01 10:15:25;;;;;;;;;25.67;25.33;;;;;;;;5062789;28;45514;-79
2024/02/01 10:17:51;;;;;;;;;31.67;28.00;;;;;;;;5058736;28;45377;-78
2024/02/01 10:20:33;;;;;;;;;27.67;26.00;;;;;;;;5058471;28;46008;-79
2024/02/01 10:22:59;;;;;;;;;25.67;25.67;;;;;;;;5056948;28;47332;-78
2024/02/01 10:25:33;;;;;;;;;26.00;26.00;;;;;;;;5059858;28;45858;-78
2024/02/01 10:28:00;;;;;;;;;23.67;22.67;;;;;;;;5060153;28;45300;-79
2024/02/01 10:30:25;;;;;;;;;25.00;24.00;;;;;;;;5060197;28;45350;-80
2024/02/01 10:32:51;;;;;;;;;22.00;22.00;;;;;;;;5060832;28;47208;-78
2024/02/01 10:35:18;;;;;;;;;18.67;17.67;;;;;;;;5062341;28;45304;-80
2024/02/01 10:37:45;;;;;;;;;18.00;17.67;;;;;;;;5066104;28;45374;-78
2024/02/01 10:40:11;;;;;;;;;24.00;22.00;;;;;;;;5062034;28;45637;-79
2024/02/01 10:42:36;;;;;;;;;24.67;22.67;;;;;;;;5058498;28;47773;-79
2024/02/01 10:45:03;;;;;;;;;21.00;20.00;;;;;;;;5061007;28;45513;-78
2024/02/01 10:47:32;;;;;;;;;24.00;22.33;;;;;;;;5062643;28;45391;-79
2024/02/01 10:49:57;;;;;;;;;25.00;23.00;;;;;;;;5059267;28;45611;-78
2024/02/01 10:52:23;;;;;;;;;19.67;17.67;;;;;;;;5058632;28;45645;-78
2024/02/01 10:54:49;;;;;;;;;14.67;14.00;;;;;;;;5059736;28;45382;-77
2024/02/01 10:57:15;;;;;;;;;20.33;19.67;;;;;;;;5062057;28;45327;-77
2024/02/01 10:59:43;;;;;;;;;22.00;19.33;;;;;;;;5060327;28;45579;-77
2024/02/01 11:02:08;;;;;;;;;21.00;18.00;;;;;;;;5062894;28;45390;-77
2024/02/01 11:04:38;;;;;;;;;22.67;19.67;;;;;;;;5063602;28;46026;-79
2024/02/01 11:07:04;;;;;;;;;17.67;17.67;;;;;;;;5060747;28;45387;-79
2024/02/01 11:09:29;;;;;;;;;24.67;22.33;;;;;;;;5065856;28;45430;-80
2024/02/01 11:11:55;;;;;;;;;18.33;17.33;;;;;;;;5058564;28;47367;-78
2024/02/01 11:14:21;;;;;;;;;22.33;21.67;;;;;;;;5057811;28;45831;-77
2024/02/01 11:16:50;;;;;;;;;19.00;19.00;;;;;;;;5058685;28;45492;-78
2024/02/01 11:19:17;;;;;;;;;21.33;20.67;;;;;;;;5059247;28;45378;-78
2024/02/01 11:21:49;;;;;;;;;16.33;16.33;;;;;;;;5064462;28;48218;-77
2024/02/01 11:24:19;;;;;;;;;22.67;18.67;;;;;;;;5069773;28;45495;-77
2024/02/01 11:26:47;;;;;;;;;22.33;19.00;;;;;;;;5060908;28;45334;-78
2024/02/01 11:29:18;;;;;;;;;20.67;20.33;;;;;;;;5067541;28;45936;-76
2024/02/01 11:31:43;;;;;;;;;21.33;19.67;;;;;;;;5068139;28;47184;-77
2024/02/01 11:34:09;;;;;;;;;17.67;15.67;;;;;;;;5061012;28;45789;-78
2024/02/01 11:36:35;;;;;;;;;14.33;14.33;;;;;;;;5062733;28;45601;-77
2024/02/01 11:39:02;;;;;;;;;14.00;14.00;;;;;;;;5067311;28;45277;-77
2024/02/01 11:41:28;;;;;;;;;16.33;15.67;;;;;;;;5061652;28;45337;-77
2024/02/01 11:43:53;;;;;;;;;16.67;15.00;;;;;;;;5058989;28;45333;-77
2024/02/01 11:46:19;;;;;;;;;15.00;14.67;;;;;;;;5062517;28;45329;-76
2024/02/01 11:48:44;;;;;;;;;12.33;11.00;;;;;;;;5060954;28;46192;-79
2024/02/01 11:51:09;;;;;;;;;14.33;12.00;;;;;;;;5062478;28;45390;-77
2024/02/01 11:53:35;;;;;;;;;13.33;12.67;;;;;;;;5063878;28;45314;-78
2024/02/01 11:56:01;;;;;;;;;14.67;13.67;;;;;;;;5063638;28;45435;-77
2024/02/01 11:58:31;;;;;;;;;12.00;12.00;;;;;;;;5078154;28;45478;-78
2024/02/01 12:00:57;;;;;;;;;11.33;10.67;;;;;;;;5079832;28;46563;-76
2024/02/01 12:03:23;;;;;;;;;12.33;10.67;;;;;;;;5051550;27;46790;-79
2024/02/01 12:05:49;;;;;;;;;10.67;10.00;;;;;;;;5056316;27;45393;-78
2024/02/01 12:08:14;;;;;;;;;9.67;9.00;;;;;;;;5056598;28;46943;-79
2024/02/01 12:10:39;;;;;;;;;12.33;12.00;;;;;;;;5057674;28;45446;-79
2024/02/01 12:13:05;;;;;;;;;11.00;11.00;;;;;;;;5056504;28;45438;-77
2024/02/01 12:15:30;;;;;;;;;14.67;11.00;;;;;;;;5056949;28;45396;-77
2024/02/01 12:17:58;;;;;;;;;13.67;13.67;;;;;;;;5057214;28;45489;-78
2024/02/01 12:20:28;;;;;;;;;10.00;10.00;;;;;;;;5055299;28;46079;-77
2024/02/01 12:22:57;;;;;;;;;8.33;8.33;;;;;;;;5053769;28;46083;-76
2024/02/01 12:25:22;;;;;;;;;13.00;8.33;;;;;;;;5056708;28;45435;-77
2024/02/01 12:27:48;;;;;;;;;7.33;7.33;;;;;;;;5056299;28;47070;-76
2024/02/01 12:30:14;;;;;;;;;11.00;9.00;;;;;;;;5057825;28;46322;-77
2024/02/01 12:32:46;;;;;;;;;7.67;7.67;;;;;;;;5058230;28;45296;-76
2024/02/01 12:35:12;;;;;;;;;6.00;6.00;;;;;;;;5058682;28;45351;-76
2024/02/01 12:37:38;;;;;;;;;10.00;10.00;;;;;;;;5058461;28;45386;-76
2024/02/01 12:40:03;;;;;;;;;8.00;8.00;;;;;;;;5056964;28;45940;-76
2024/02/01 12:42:32;;;;;;;;;8.67;8.67;;;;;;;;5055163;28;45255;-76
2024/02/01 12:44:58;;;;;;;;;8.00;8.00;;;;;;;;5058196;28;45405;-79
2024/02/01 12:47:23;;;;;;;;;8.33;8.00;;;;;;;;5057291;28;45386;-76
2024/02/01 12:49:48;;;;;;;;;9.00;9.00;;;;;;;;5057164;28;46334;-76
2024/02/01 12:52:13;;;;;;;;;9.33;9.33;;;;;;;;5055115;28;45394;-78
2024/02/01 12:54:42;;;;;;;;;6.00;6.00;;;;;;;;5057799;28;45331;-77
2024/02/01 12:57:08;;;;;;;;;3.33;3.33;;;;;;;;5056398;28;47109;-77
2024/02/01 12:59:36;;;;;;;;;4.00;4.00;;;;;;;;5057403;28;46251;-77
2024/02/01 13:02:02;;;;;;;;;2.67;2.00;;;;;;;;5056739;28;45430;-76
2024/02/01 13:04:28;;;;;;;;;4.00;4.00;;;;;;;;5057549;28;45413;-76
2024/02/01 13:06:54;;;;;;;;;4.67;4.00;;;;;;;;5058207;28;45271;-78
2024/02/01 13:09:28;;;;;;;;;4.00;2.75;;;;;;;;5057993;28;46010;-77
2024/02/01 13:11:59;;;;;;;;;3.67;3.00;;;;;;;;5055779;28;45396;-78
2024/02/01 13:14:31;;;;;;;;;3.00;3.00;;;;;;;;5062149;28;45271;-76
2024/02/01 13:16:59;;;;;;;;;5.00;4.00;;;;;;;;5062258;28;45372;-77
2024/02/01 13:19:24;;;;;;;;;3.33;3.33;;;;;;;;5060870;28;48148;-76
2024/02/01 13:21:52;;;;;;;;;5.00;5.00;;;;;;;;5060767;28;45367;-76
2024/02/01 13:24:18;;;;;;;;;5.00;5.00;;;;;;;;5059816;28;45334;-77
2024/02/01 13:26:43;;;;;;;;;4.67;4.67;;;;;;;;5063740;28;45517;-77
2024/02/01 13:29:13;;;;;;;;;4.00;4.00;;;;;;;;5066796;27;45629;-76
2024/02/01 13:31:39;;;;;;;;;2.67;2.67;;;;;;;;5060855;28;45660;-76
2024/02/01 13:34:05;;;;;;;;;4.00;4.00;;;;;;;;5060009;28;45592;-79
2024/02/01 13:36:30;;;;;;;;;4.00;4.00;;;;;;;;5050194;28;45213;-77
2024/02/01 13:38:55;;;;;;;;;2.00;2.00;;;;;;;;5061444;28;45372;-77
2024/02/01 13:41:21;;;;;;;;;4.00;3.00;;;;;;;;5059441;28;45225;-78
2024/02/01 13:43:46;;;;;;;;;5.00;5.00;;;;;;;;5061464;28;45362;-77
2024/02/01 13:46:11;;;;;;;;;3.67;3.67;;;;;;;;5060308;28;46128;-77
2024/02/01 13:48:37;;;;;;;;;5.33;5.33;;;;;;;;5043208;28;47215;-78
2024/02/01 13:51:03;;;;;;;;;8.00;7.33;;;;;;;;5061138;28;45222;-77
2024/02/01 13:53:28;;;;;;;;;10.00;10.00;;;;;;;;5061364;28;45326;-77
2024/02/01 13:55:54;;;;;;;;;14.67;12.67;;;;;;;;5061156;28;45333;-76
2024/02/01 13:58:19;;;;;;;;;12.00;10.67;;;;;;;;5078398;28;45317;-77
2024/02/01 14:00:44;;;;;;;;;10.00;10.00;;;;;;;;5082532;27;45366;-76
2024/02/01 14:03:09;;;;;;;;;11.33;11.33;;;;;;;;5081892;27;45333;-77
2024/02/01 14:05:34;;;;;;;;;11.67;11.33;;;;;;;;5082231;27;45352;-75
2024/02/01 14:08:01;;;;;;;;;15.00;15.00;;;;;;;;5082130;27;45326;-76
2024/02/01 14:10:26;;;;;;;;;13.33;13.00;;;;;;;;5079488;27;45382;-77
2024/02/01 14:12:51;;;;;;;;;10.33;10.33;;;;;;;;5060628;28;45460;-76
2024/02/01 14:15:17;;;;;;;;;12.33;12.33;;;;;;;;5060730;28;46436;-77
2024/02/01 14:17:42;;;;;;;;;9.33;8.67;;;;;;;;5061566;28;46351;-76
2024/02/01 14:20:11;;;;;;;;;12.00;10.33;;;;;;;;5061808;28;45294;-76
2024/02/01 14:22:36;;;;;;;;;10.33;10.33;;;;;;;;5060924;28;45315;-77
2024/02/01 14:25:01;;;;;;;;;9.33;8.33;;;;;;;;5061201;28;45592;-76
2024/02/01 14:27:26;;;;;;;;;8.67;8.33;;;;;;;;5061037;28;46321;-77
2024/02/01 14:29:51;;;;;;;;;9.00;8.33;;;;;;;;5060447;28;45539;-76
2024/02/01 14:32:17;;;;;;;;;12.67;11.33;;;;;;;;5061218;28;45458;-77
2024/02/01 14:34:45;;;;;;;;;10.67;9.00;;;;;;;;5063473;28;45425;-78
2024/02/01 14:37:11;;;;;;;;;10.33;9.00;;;;;;;;5060606;28;45333;-77
2024/02/01 14:39:41;;;;;;;;;10.67;10.00;;;;;;;;5061441;28;45391;-78
2024/02/01 14:42:06;;;;;;;;;12.00;11.00;;;;;;;;5063837;28;45365;-76
2024/02/01 14:44:31;;;;;;;;;6.00;3.33;;;;;;;;5060805;28;45552;-77
2024/02/01 14:46:56;;;;;;;;;7.00;7.00;;;;;;;;5061445;28;47259;-75
2024/02/01 14:49:21;;;;;;;;;9.33;9.33;;;;;;;;5063080;28;45297;-76
2024/02/01 14:51:47;;;;;;;;;9.67;7.00;;;;;;;;5067055;28;45283;-77
2024/02/01 14:54:12;;;;;;;;;10.00;9.67;;;;;;;;5062693;28;44774;-76
2024/02/01 14:56:37;;;;;;;;;9.67;9.67;;;;;;;;5063807;28;45224;-76
2024/02/01 14:59:03;;;;;;;;;10.33;9.67;;;;;;;;5064190;28;45259;-76
2024/02/01 15:01:28;;;;;;;;;7.33;7.33;;;;;;;;5061064;28;45394;-75
2024/02/01 15:03:54;;;;;;;;;9.67;8.00;;;;;;;;5060271;28;46038;-75
2024/02/01 15:06:23;;;;;;;;;7.33;7.33;;;;;;;;5058947;28;47274;-77
2024/02/01 15:08:48;;;;;;;;;6.33;5.67;;;;;;;;5063013;28;45286;-76
2024/02/01 15:11:17;;;;;;;;;6.67;6.67;;;;;;;;5071389;28;46037;-77
2024/02/01 15:13:42;;;;;;;;;7.67;7.67;;;;;;;;5062825;28;45953;-77
2024/02/01 15:16:07;;;;;;;;;5.67;5.67;;;;;;;;5059326;28;48297;-75
2024/02/01 15:18:34;;;;;;;;;7.67;7.00;;;;;;;;5060279;28;45550;-75
2024/02/01 15:20:59;;;;;;;;;11.00;8.33;;;;;;;;5060280;28;45326;-77
2024/02/01 15:23:24;;;;;;;;;7.33;7.33;;;;;;;;5059710;28;45658;-76
2024/02/01 15:25:50;;;;;;;;;7.00;7.00;;;;;;;;5060216;28;45231;-76
2024/02/01 15:28:17;;;;;;;;;7.33;6.67;;;;;;;;5060130;28;45344;-76
2024/02/01 15:30:48;;;;;;;;;6.33;6.33;;;;;;;;5060311;28;45279;-75
2024/02/01 15:33:14;;;;;;;;;6.33;6.33;;;;;;;;5060484;28;45330;-77